Jeriel, Kentucky
Current Conditions -  °F | °C
As of 4:55 PM on Thursday 27 Nov 2014 (Local Time) from KDWU Reporting Station
Overcast Overcast  
Wind Chill: 30°   Ceiling: 5000
Heat Index: 36°   Visibility: 10mi
Dew Point: 19°   Wind: 7mph
Humidity: 52%   Direction: 330°NNW
Pressure: 30.28"   Gusts: NA
Location:  38.3193°N, 82.994°W
Report Text: KDWU 272155Z AUTO 33006KT 10SM SCT037 OVC050 02/M07 A3028 RMK AO1
Loading
Personal Weather Stations






























Interactive Weather Map New forecast layout! Learn more

10-Day Weather Forecast

Advertisements
Track Severe Weather on mobile